イスタンブル の空港の天気 - METARとTAF

アタテュルク国際空港(イスタンブル) ( LTBA / IST ) - トルコ イスタンブル
飛行場実況気象(Metar)
観測時間01/22 12:20 +03 (01/22 09:20 UTC)
風向・風速東北東 3m/s
視程10km以上
天気現象
少しの雲 雲底高度 430m
全天の8割程度の雲 雲底高度 610m
気温4℃
湿度75%
気圧1034hPa
METARLTBA 220920Z 06005KT 330V130 9999 FEW014 BKN020 04/M00 Q1034 NOSIG
過去の天気等 Google飛行場航空写真 Wunderground天気予報

過去48時間のMETAR

飛行場予報(TAF)
発表時間: 1/22 07:40 +03 (1/22 04:40 UTC)
予報対象時間: 22日9時 +03 ~ 23日15時 +03
風向・風速北北東 4m/s
視程10km以上
少しの雲 雲底高度 550m
全天の8割程度の雲 雲底高度 1,010m
22日12時 +03 から 確率 30% で
天気現象弱い霧雨
全天の8割程度の雲 雲底高度 760m
22日17時 +03 ~ 22日21時 +03 に徐々に
視程10km以上
なし
23日5時 +03 ~ 23日8時 +03 に徐々に
少しの雲 雲底高度 550m
全天の8割程度の雲 雲底高度 1,010m
TAF LTBA 220440Z 2206/2312 03008KT 9999 FEW018 BKN033
PROB30 2209/2212 -DZ BKN025
BECMG 2214/2218 CAVOK
BECMG 2302/2305 FEW018 BKN033